Pagrindinis puslapis
METAR-TAF:

METAR-TAF

Oro uostai :

Gojanija, Gojasas, Brazilija

platuma: 16-38S, ilguma: 049-13W, Aukštis: 747 m

Dabartinis oras

Ataskaita buvo paskelbta 42 minutes, ne 23:00 UTC
Vėjas 5 kt iš Rytų/Pietryčių
Temperatūra 25°C
Drėgmė 61%
Slėgis 1021 hPa
Matomumas 10 km arba daugiau
nėra debesų žemiau 1500 m ir nėra kamuolinių lietaus debesų

METAR: SBGO 052300Z 12005KT CAVOK 25/17 Q1021

Laikas: 20:42 (23:42 UTC)

Prognozė

Ataskaita buvo paskelbta 8 valandos ir 42 minutes, ne 15:00 UTC
Prognozė galioja nuo 05 metu 18 UTC su 06 metu 18 UTC
Vėjas 9 kt iš Rytų
Matomumas 10 km arba daugiau
Išsisklaidę debesys ne aukštis 4000 ft
Tapsmas
nuo 05 metu 20 UTC su 05 metu 22 UTC
Matomumas 10 km arba daugiau
nėra debesų žemiau 1500 m ir nėra kamuolinių lietaus debesų
Tapsmas
nuo 06 metu 14 UTC su 06 metu 16 UTC
Matomumas 10 km arba daugiau
Mažai debesys ne aukštis 4000 ft

TAF: SBGO 051500Z 0518/0618 08009KT 9999 SCT040 TN19/0608Z TX30/0618Z BECMG 0520/0522 CAVOK BECMG 0614/0616 9999 FEW040 RMK PEG

Orai ataskaitas ir orų prognozės (METAR, TAF).

turimą stotys yra geltonos ir raudonos taškus žemėlapyje.

Perkelti pele per norėdami pamatyti stoties vardą.

Tada spustelėkite, norėdami matyti oro stebėjimo ir prognozės.

Norėdami pakeisti žemėlapį: spustelėkite ant žalios mygtukų su juodo kryžiaus žemyn,; žalią mygtuką su brūkšneliu, jei norite nutolinti; arba žalių rodyklių gretimoms žemėlapius.


METAR-TAF: